createdAt,value
2019-05-02T00:01:29.334Z,30.60
2019-05-02T00:03:59.257Z,22.00
2019-05-02T00:06:29.360Z,23.00
2019-05-02T00:08:59.283Z,28.00
2019-05-02T00:11:29.646Z,24.80
2019-05-02T00:14:00.059Z,17.80
2019-05-02T00:16:30.024Z,21.60
2019-05-02T00:18:59.950Z,23.50
2019-05-02T00:21:33.003Z,21.00
2019-05-02T00:24:03.040Z,20.75
2019-05-02T00:26:33.083Z,20.00
2019-05-02T00:29:03.011Z,19.00
2019-05-02T00:31:33.109Z,26.20
2019-05-02T00:34:02.952Z,26.60
2019-05-02T00:36:32.848Z,20.60
2019-05-02T00:39:02.819Z,22.60
2019-05-02T00:41:38.409Z,19.00
2019-05-02T00:44:10.505Z,21.00
2019-05-02T00:46:37.563Z,20.00
2019-05-02T00:49:07.441Z,19.00
2019-05-02T00:51:37.302Z,21.50
2019-05-02T00:54:07.192Z,20.75
2019-05-02T00:56:40.187Z,25.20
2019-05-02T00:59:08.912Z,23.60
2019-05-02T01:01:51.542Z,22.00
2019-05-02T01:04:29.026Z,24.80
2019-05-02T01:06:59.287Z,22.20
2019-05-02T01:09:29.182Z,17.60
2019-05-02T01:12:03.090Z,19.20
2019-05-02T01:14:31.730Z,21.50
2019-05-02T01:17:02.351Z,22.00
2019-05-02T01:19:32.211Z,22.00
2019-05-02T01:22:02.114Z,19.00
2019-05-02T01:24:34.095Z,20.00
2019-05-02T01:27:28.936Z,28.00
2019-05-02T01:30:15.123Z,22.60
2019-05-02T01:33:06.530Z,17.00
2019-05-02T01:36:01.719Z,18.00
2019-05-02T01:38:35.423Z,26.60
2019-05-02T01:41:05.447Z,24.80
2019-05-02T01:43:35.298Z,21.60
2019-05-02T01:46:05.241Z,23.00
2019-05-02T01:48:35.150Z,26.00
2019-05-02T01:51:10.217Z,21.00
2019-05-02T01:53:36.707Z,25.00
2019-05-02T01:56:07.559Z,25.00
2019-05-02T01:58:37.452Z,23.00
2019-05-02T02:01:07.306Z,19.00
2019-05-02T02:03:40.570Z,21.00
2019-05-02T02:06:10.147Z,22.60
2019-05-02T02:08:40.050Z,26.00
2019-05-02T02:11:09.971Z,26.25
2019-05-02T02:13:39.830Z,26.00
2019-05-02T02:16:09.718Z,26.40
2019-05-02T02:18:45.324Z,15.40
2019-05-02T02:21:43.380Z,20.00
2019-05-02T02:24:21.068Z,18.75
2019-05-02T02:26:49.957Z,22.00
2019-05-02T02:29:19.884Z,22.60
2019-05-02T02:31:49.744Z,21.00
2019-05-02T02:34:29.237Z,27.75
2019-05-02T02:36:51.172Z,21.00
2019-05-02T02:39:21.058Z,17.40
2019-05-02T02:41:51.986Z,19.60
2019-05-02T02:44:48.225Z,16.00
2019-05-02T02:47:20.915Z,19.00
2019-05-02T02:49:55.477Z,21.00
2019-05-02T02:52:21.182Z,19.40
2019-05-02T02:54:51.067Z,19.00
2019-05-02T02:57:26.456Z,18.00
2019-05-02T02:59:52.598Z,23.00
2019-05-02T03:02:23.428Z,24.60
2019-05-02T03:04:53.248Z,25.00
2019-05-02T03:07:26.119Z,20.80
2019-05-02T03:09:59.720Z,24.00
2019-05-02T03:12:44.193Z,19.00
2019-05-02T03:15:20.837Z,19.40
2019-05-02T03:17:48.461Z,20.00
2019-05-02T03:20:18.344Z,20.40
2019-05-02T03:22:48.225Z,19.00
2019-05-02T03:25:27.044Z,25.20
2019-05-02T03:27:49.789Z,17.00
2019-05-02T03:30:30.998Z,17.20
2019-05-02T03:33:04.690Z,17.80
2019-05-02T03:35:40.430Z,14.00
2019-05-02T03:37:54.637Z,19.00
2019-05-02T03:40:24.460Z,13.00
2019-05-02T03:42:54.325Z,19.20
2019-05-02T03:45:24.234Z,18.00
2019-05-02T03:47:54.549Z,16.25
2019-05-02T03:50:32.179Z,14.20
2019-05-02T03:52:56.037Z,20.50
2019-05-02T03:55:30.704Z,13.00
2019-05-02T03:57:57.488Z,14.50
2019-05-02T04:00:27.309Z,12.60
2019-05-02T04:03:00.260Z,16.25
2019-05-02T04:05:33.658Z,17.00
2019-05-02T04:08:00.276Z,13.00
2019-05-02T04:11:24.120Z,19.40
2019-05-02T04:13:54.674Z,21.75
2019-05-02T04:16:25.239Z,14.80
2019-05-02T04:18:58.165Z,17.00
2019-05-02T04:21:27.987Z,16.00
2019-05-02T04:24:06.610Z,17.00
2019-05-02T04:26:29.555Z,17.00
2019-05-02T04:28:59.477Z,17.40
2019-05-02T04:31:31.796Z,21.00
2019-05-02T04:34:00.882Z,18.40
2019-05-02T04:36:30.803Z,17.80
2019-05-02T04:39:05.964Z,18.40
2019-05-02T04:41:34.348Z,18.00
2019-05-02T04:44:04.148Z,18.00
2019-05-02T04:46:34.041Z,18.40
2019-05-02T04:49:04.072Z,21.40
2019-05-02T04:51:33.965Z,20.00
2019-05-02T04:54:03.893Z,18.25
2019-05-02T04:56:42.182Z,20.20
2019-05-02T04:59:14.007Z,21.75
2019-05-02T05:01:43.457Z,16.80
2019-05-02T05:04:08.571Z,24.00
2019-05-02T05:06:40.922Z,22.40
2019-05-02T05:09:14.657Z,21.50
2019-05-02T05:11:41.670Z,19.40
2019-05-02T05:14:11.621Z,26.60
2019-05-02T05:16:45.549Z,22.00
2019-05-02T05:19:13.121Z,17.20
2019-05-02T05:21:42.944Z,20.00
2019-05-02T05:24:32.706Z,23.40
2019-05-02T05:27:03.490Z,19.40
2019-05-02T05:29:33.422Z,15.00
2019-05-02T05:32:09.239Z,15.40
2019-05-02T05:34:34.800Z,17.00
2019-05-02T05:37:09.525Z,18.20
2019-05-02T05:39:38.150Z,21.00
2019-05-02T05:42:10.643Z,18.20
2019-05-02T05:44:40.049Z,19.00
2019-05-02T05:47:12.045Z,16.20
2019-05-02T05:49:41.572Z,17.00
2019-05-02T05:52:11.401Z,20.40
2019-05-02T05:54:42.097Z,21.20
2019-05-02T05:57:16.730Z,22.40
2019-05-02T05:59:43.733Z,19.80
2019-05-02T06:02:14.785Z,15.00
2019-05-02T06:04:44.793Z,15.60
2019-05-02T06:07:14.640Z,19.80
2019-05-02T06:09:44.468Z,15.60
2019-05-02T06:12:14.497Z,18.20
2019-05-02T06:15:26.855Z,17.20
2019-05-02T06:17:59.931Z,23.00
2019-05-02T06:20:30.617Z,20.60
2019-05-02T06:23:01.206Z,17.60
2019-05-02T06:25:34.365Z,22.00
2019-05-02T06:28:05.401Z,23.00
2019-05-02T06:30:34.336Z,20.00
2019-05-02T06:33:04.654Z,26.00
2019-05-02T06:35:34.528Z,18.25
2019-05-02T06:38:04.409Z,22.00
2019-05-02T06:40:34.302Z,22.60
2019-05-02T06:43:09.323Z,24.00
2019-05-02T06:45:37.496Z,27.00
2019-05-02T06:48:07.403Z,24.40
2019-05-02T06:50:38.809Z,21.00
2019-05-02T06:53:09.602Z,21.00
2019-05-02T06:55:40.478Z,18.20
2019-05-02T06:58:11.437Z,30.50
2019-05-02T07:00:56.401Z,21.40
2019-05-02T07:03:12.957Z,26.75
2019-05-02T07:05:43.083Z,24.40
2019-05-02T07:08:14.021Z,17.60
2019-05-02T07:10:45.171Z,22.60
2019-05-02T07:13:15.554Z,21.80
2019-05-02T07:16:10.404Z,26.40
2019-05-02T07:18:49.704Z,23.60
2019-05-02T07:21:23.434Z,26.00
2019-05-02T07:23:54.000Z,24.00
2019-05-02T07:26:23.333Z,24.00
2019-05-02T07:28:53.366Z,22.80
2019-05-02T07:31:23.314Z,21.40
2019-05-02T07:33:53.272Z,31.50
2019-05-02T07:36:23.590Z,31.60
2019-05-02T07:38:57.511Z,22.80
2019-05-02T07:41:28.933Z,25.00
2019-05-02T07:43:57.513Z,22.00
2019-05-02T07:46:27.614Z,28.20
2019-05-02T07:48:57.511Z,26.75
2019-05-02T07:51:27.460Z,21.00
2019-05-02T07:53:57.294Z,22.00
2019-05-02T07:56:27.126Z,24.60
2019-05-02T07:58:56.980Z,25.00
2019-05-02T08:01:26.810Z,19.40
2019-05-02T08:03:56.729Z,31.40
2019-05-02T08:06:34.993Z,29.00
2019-05-02T08:09:01.597Z,28.50
2019-05-02T08:11:32.222Z,26.75
2019-05-02T08:14:03.019Z,27.00
2019-05-02T08:16:32.961Z,26.60
2019-05-02T08:19:05.414Z,28.00
2019-05-02T08:21:34.445Z,28.60
2019-05-02T08:24:04.328Z,28.00
2019-05-02T08:27:09.001Z,28.80
2019-05-02T08:29:38.846Z,31.40
2019-05-02T08:32:08.810Z,29.25
2019-05-02T08:34:38.723Z,32.00
2019-05-02T08:37:08.615Z,36.00
2019-05-02T08:39:38.566Z,36.40
2019-05-02T08:42:08.857Z,34.75
2019-05-02T08:44:50.272Z,34.20
2019-05-02T08:47:18.661Z,30.00
2019-05-02T08:49:42.579Z,27.50
2019-05-02T08:52:12.610Z,29.00
2019-05-02T08:54:42.466Z,32.25
2019-05-02T08:57:12.490Z,33.50
2019-05-02T08:59:42.450Z,32.00
2019-05-02T09:02:12.310Z,30.25
2019-05-02T09:04:42.238Z,38.20
2019-05-02T09:07:12.168Z,35.80
2019-05-02T09:09:42.029Z,39.20
2019-05-02T09:12:14.963Z,34.60
2019-05-02T09:14:43.591Z,33.00
2019-05-02T09:17:16.384Z,29.60
2019-05-02T09:19:58.859Z,33.80
2019-05-02T09:22:16.861Z,35.00
2019-05-02T09:24:46.750Z,33.60
2019-05-02T09:27:16.653Z,29.20
2019-05-02T09:29:46.507Z,25.00
2019-05-02T09:32:17.236Z,31.40
2019-05-02T09:34:47.962Z,30.00
2019-05-02T09:37:17.792Z,33.60
2019-05-02T09:39:47.694Z,39.20
2019-05-02T09:42:19.127Z,34.40
2019-05-02T09:44:53.364Z,31.00
2019-05-02T09:47:27.429Z,26.80
2019-05-02T09:50:09.209Z,37.50
2019-05-02T09:52:40.914Z,41.40
2019-05-02T09:55:12.192Z,36.80
2019-05-02T09:57:42.810Z,34.00
2019-05-02T10:00:18.645Z,31.60
2019-05-02T10:02:48.506Z,35.40
2019-05-02T10:05:18.388Z,39.20
2019-05-02T10:07:48.698Z,37.20
2019-05-02T10:10:18.884Z,31.50
2019-05-02T10:12:48.755Z,39.80
2019-05-02T10:15:18.714Z,94.25
2019-05-02T10:17:48.598Z,38.00
2019-05-02T10:20:18.533Z,77.50
2019-05-02T10:22:48.430Z,37.20
2019-05-02T10:25:18.329Z,31.60
2019-05-02T10:27:48.226Z,39.00
2019-05-02T10:30:18.181Z,27.50
2019-05-02T10:32:52.826Z,28.75
2019-05-02T10:35:22.901Z,32.00
2019-05-02T10:37:52.993Z,43.80
2019-05-02T10:40:22.909Z,41.80
2019-05-02T10:42:52.795Z,31.00
2019-05-02T10:45:22.727Z,36.00
2019-05-02T10:47:52.833Z,29.60
2019-05-02T10:50:27.426Z,30.20
2019-05-02T10:52:57.272Z,36.25
2019-05-02T10:55:27.707Z,30.20
2019-05-02T10:57:57.637Z,30.40
2019-05-02T11:00:33.031Z,40.00
2019-05-02T11:03:43.756Z,32.40
2019-05-02T11:06:12.619Z,33.75
2019-05-02T11:08:45.954Z,34.80
2019-05-02T11:11:14.229Z,32.40
2019-05-02T11:14:05.613Z,32.40
2019-05-02T11:16:42.311Z,30.00
2019-05-02T11:19:21.867Z,30.40
2019-05-02T11:21:56.344Z,28.40
2019-05-02T11:24:23.529Z,33.80
2019-05-02T11:26:53.728Z,28.00
2019-05-02T11:29:24.026Z,33.25
2019-05-02T11:31:53.903Z,29.00
2019-05-02T11:34:23.806Z,30.60
2019-05-02T11:36:53.666Z,26.50
2019-05-02T11:39:32.503Z,30.00
2019-05-02T11:41:55.185Z,24.60
2019-05-02T11:44:25.059Z,30.80
2019-05-02T11:46:55.014Z,30.20
2019-05-02T11:49:24.842Z,32.60
2019-05-02T11:51:57.033Z,27.00
2019-05-02T11:54:27.854Z,34.00
2019-05-02T11:56:57.784Z,31.25
2019-05-02T11:59:29.214Z,36.00
2019-05-02T12:02:24.777Z,31.00
2019-05-02T12:04:55.633Z,29.00
2019-05-02T12:07:25.540Z,25.40
2019-05-02T12:09:57.088Z,26.00
2019-05-02T12:12:31.316Z,23.00
2019-05-02T12:14:58.534Z,27.40
2019-05-02T12:17:28.424Z,24.00
2019-05-02T12:19:58.297Z,28.75
2019-05-02T12:22:28.154Z,26.40
2019-05-02T12:24:58.058Z,24.00
2019-05-02T12:27:27.916Z,27.20
2019-05-02T12:29:59.234Z,27.50
2019-05-02T12:32:29.497Z,28.60
2019-05-02T12:34:59.461Z,31.40
2019-05-02T12:37:30.292Z,22.80
2019-05-02T12:40:00.175Z,31.20
2019-05-02T12:42:33.056Z,32.00
2019-05-02T12:45:02.945Z,31.20
2019-05-02T12:47:32.931Z,22.80
2019-05-02T12:50:03.258Z,22.60
2019-05-02T12:52:34.150Z,21.40
2019-05-02T12:55:04.286Z,27.00
2019-05-02T12:57:34.114Z,23.80
2019-05-02T13:00:04.407Z,27.50
2019-05-02T13:02:56.976Z,27.20
2019-05-02T13:05:26.835Z,31.40
2019-05-02T13:07:56.759Z,29.00
2019-05-02T13:10:37.810Z,25.60
2019-05-02T13:13:07.739Z,29.00
2019-05-02T13:15:37.597Z,23.00
2019-05-02T13:18:07.491Z,24.40
2019-05-02T13:20:39.395Z,19.00
2019-05-02T13:23:37.061Z,21.20
2019-05-02T13:26:13.971Z,34.60
2019-05-02T13:28:36.536Z,32.00
2019-05-02T13:31:13.414Z,35.75
2019-05-02T13:33:49.867Z,33.20
2019-05-02T13:36:38.515Z,31.60
2019-05-02T13:39:12.393Z,32.40
2019-05-02T13:41:42.849Z,33.80
2019-05-02T13:44:14.571Z,25.80
2019-05-02T13:46:44.462Z,30.00
2019-05-02T13:49:14.413Z,25.60
2019-05-02T13:51:44.266Z,27.40
2019-05-02T13:54:14.180Z,27.00
2019-05-02T13:56:53.144Z,33.00
2019-05-02T13:59:23.172Z,32.40
2019-05-02T14:01:53.981Z,34.60
2019-05-02T14:04:23.890Z,29.00
2019-05-02T14:06:53.750Z,31.60
2019-05-02T14:09:44.541Z,40.40
2019-05-02T14:12:22.309Z,42.50
2019-05-02T14:14:52.154Z,38.60
2019-05-02T14:17:22.973Z,29.20
2019-05-02T14:20:07.406Z,37.25
2019-05-02T14:22:24.551Z,33.50
2019-05-02T14:24:54.483Z,30.40
2019-05-02T14:27:24.387Z,28.40
2019-05-02T14:29:54.380Z,28.80
2019-05-02T14:32:26.607Z,34.20
2019-05-02T14:35:09.474Z,33.40
2019-05-02T14:37:39.362Z,32.00
2019-05-02T14:40:15.452Z,36.20
2019-05-02T14:42:45.377Z,35.00
2019-05-02T14:45:27.312Z,37.80
2019-05-02T14:47:49.742Z,36.60
2019-05-02T14:50:25.101Z,41.20
2019-05-02T14:52:51.634Z,35.75
2019-05-02T14:55:24.470Z,41.20
2019-05-02T14:57:57.059Z,43.40
2019-05-02T15:00:32.828Z,45.25
2019-05-02T15:02:59.078Z,44.80
2019-05-02T15:05:29.712Z,41.00
2019-05-02T15:08:02.601Z,51.00
2019-05-02T15:10:34.977Z,37.00
2019-05-02T15:13:03.926Z,44.60
2019-05-02T15:15:40.739Z,56.75
2019-05-02T15:18:08.011Z,52.50
2019-05-02T15:20:39.402Z,48.80
2019-05-02T15:23:13.793Z,80.00
2019-05-02T15:25:42.265Z,56.00
2019-05-02T15:28:19.378Z,38.20
2019-05-02T15:31:05.003Z,40.20
2019-05-02T15:33:38.798Z,44.25
2019-05-02T15:36:09.188Z,45.00
2019-05-02T15:38:45.528Z,43.00
2019-05-02T15:41:12.988Z,38.75
2019-05-02T15:43:44.466Z,43.00
2019-05-02T15:46:15.767Z,44.50
2019-05-02T15:48:45.495Z,46.00
2019-05-02T15:51:15.360Z,45.50
2019-05-02T15:54:05.937Z,41.00
2019-05-02T15:56:32.722Z,48.80
2019-05-02T15:59:06.281Z,39.00
2019-05-02T16:01:47.868Z,42.00
2019-05-02T16:04:24.041Z,46.00
2019-05-02T16:06:50.475Z,43.80
2019-05-02T16:09:21.596Z,40.80
2019-05-02T16:11:53.199Z,38.20
2019-05-02T16:14:27.236Z,33.20
2019-05-02T16:16:54.840Z,46.60
2019-05-02T16:19:29.385Z,40.00
2019-05-02T16:22:06.347Z,38.20
2019-05-02T16:24:33.769Z,40.60
2019-05-02T16:27:03.679Z,45.00
2019-05-02T16:29:33.598Z,38.80
2019-05-02T16:32:22.104Z,40.80
2019-05-02T16:34:58.430Z,41.40
2019-05-02T16:37:28.405Z,39.20
2019-05-02T16:39:58.377Z,47.60
2019-05-02T16:42:28.332Z,42.75
2019-05-02T16:44:58.270Z,46.00
2019-05-02T16:47:28.107Z,64.40
2019-05-02T16:49:58.000Z,46.00
2019-05-02T16:52:27.829Z,52.20
2019-05-02T16:54:57.689Z,48.00
2019-05-02T16:57:27.542Z,54.00
2019-05-02T17:00:01.242Z,47.20
2019-05-02T17:02:29.183Z,43.80
2019-05-02T17:05:00.108Z,47.20
2019-05-02T17:07:49.001Z,51.60
2019-05-02T17:10:29.231Z,47.00
2019-05-02T17:13:00.865Z,37.00
2019-05-02T17:15:35.417Z,46.75
2019-05-02T17:18:12.675Z,49.20
2019-05-02T17:20:38.006Z,51.00
2019-05-02T17:23:07.961Z,47.20
2019-05-02T17:25:37.966Z,49.60
2019-05-02T17:28:10.505Z,48.80
2019-05-02T17:30:40.649Z,44.00
2019-05-02T17:33:14.354Z,48.00
2019-05-02T17:35:49.596Z,41.80
2019-05-02T17:38:19.182Z,49.75
2019-05-02T17:40:46.303Z,49.25
2019-05-02T17:43:16.250Z,49.00
2019-05-02T17:45:47.952Z,49.50
2019-05-02T17:48:18.030Z,48.80
2019-05-02T17:51:19.122Z,52.20
2019-05-02T17:53:50.009Z,53.00
2019-05-02T17:56:23.200Z,51.00
2019-05-02T17:58:56.899Z,48.00
2019-05-02T18:01:37.052Z,49.80
2019-05-02T18:04:11.856Z,39.20
2019-05-02T18:06:38.549Z,50.50
2019-05-02T18:09:09.282Z,45.40
2019-05-02T18:11:39.379Z,38.40
2019-05-02T18:14:18.361Z,45.80
2019-05-02T18:16:42.013Z,44.20
2019-05-02T18:19:16.028Z,48.00
2019-05-02T18:21:43.714Z,40.00
2019-05-02T18:24:13.568Z,39.50
2019-05-02T18:26:43.562Z,35.00
2019-05-02T18:29:15.464Z,34.80
2019-05-02T18:31:47.608Z,37.00
2019-05-02T18:34:23.665Z,30.80
2019-05-02T18:36:48.263Z,36.00
2019-05-02T18:39:18.115Z,42.00
2019-05-02T18:41:48.042Z,36.50
2019-05-02T18:44:18.772Z,33.40
2019-05-02T18:46:48.754Z,32.00
2019-05-02T18:49:21.918Z,30.50
2019-05-02T18:51:53.778Z,33.25
2019-05-02T18:54:21.810Z,35.50
2019-05-02T18:56:55.355Z,30.50
2019-05-02T18:59:26.902Z,36.50
2019-05-02T19:01:57.187Z,40.00
2019-05-02T19:04:35.269Z,44.60
2019-05-02T19:06:59.223Z,49.25
2019-05-02T19:09:30.461Z,45.75
2019-05-02T19:12:06.541Z,43.00
2019-05-02T19:14:32.841Z,48.40
2019-05-02T19:17:07.002Z,48.00
2019-05-02T19:19:36.843Z,46.80
2019-05-02T19:22:07.563Z,47.20
2019-05-02T19:24:37.547Z,43.80
2019-05-02T19:27:08.490Z,49.00
2019-05-02T19:29:38.391Z,42.40
2019-05-02T19:32:12.327Z,49.75
2019-05-02T19:34:42.354Z,46.00
2019-05-02T19:37:12.288Z,43.40
2019-05-02T19:39:46.897Z,45.20
2019-05-02T19:42:17.016Z,43.50
2019-05-02T19:44:45.304Z,43.40
2019-05-02T19:47:17.513Z,35.00
2019-05-02T19:49:47.398Z,42.60
2019-05-02T19:52:18.350Z,42.00
2019-05-02T19:54:48.240Z,39.75
2019-05-02T19:57:22.724Z,30.50
2019-05-02T19:59:49.637Z,25.25
2019-05-02T20:02:22.279Z,20.00
2019-05-02T20:04:52.236Z,18.00
2019-05-02T20:07:22.095Z,14.00
2019-05-02T20:09:52.412Z,13.00
2019-05-02T20:12:23.440Z,14.80
2019-05-02T20:14:53.396Z,9.40
2019-05-02T20:17:24.078Z,10.40
2019-05-02T20:19:57.752Z,3.20
2019-05-02T20:22:29.122Z,6.00
2019-05-02T20:25:01.243Z,5.00
2019-05-02T20:27:33.025Z,4.00
2019-05-02T20:30:03.102Z,4.60
2019-05-02T20:32:34.719Z,3.40
2019-05-02T20:35:04.797Z,3.00
2019-05-02T20:37:34.692Z,3.00
2019-05-02T20:40:05.202Z,4.40
2019-05-02T20:42:35.112Z,3.50
2019-05-02T20:45:05.193Z,4.00
2019-05-02T20:47:35.084Z,2.00
2019-05-02T20:50:05.961Z,4.00
2019-05-02T20:52:37.029Z,3.40
2019-05-02T20:55:07.245Z,4.60
2019-05-02T20:57:38.143Z,4.40
2019-05-02T21:00:08.221Z,3.00
2019-05-02T21:02:38.951Z,5.00
2019-05-02T21:05:11.570Z,4.00
2019-05-02T21:07:49.162Z,3.00
2019-05-02T21:10:23.239Z,5.00
2019-05-02T21:12:53.184Z,4.20
2019-05-02T21:15:23.256Z,3.40
2019-05-02T21:17:53.205Z,6.00
2019-05-02T21:20:23.142Z,5.60
2019-05-02T21:22:53.176Z,5.00
2019-05-02T21:25:23.372Z,4.00
2019-05-02T21:27:53.340Z,5.00
2019-05-02T21:30:24.796Z,5.00
2019-05-02T21:32:54.713Z,7.75
2019-05-02T21:35:24.703Z,7.00
2019-05-02T21:37:54.632Z,10.00
2019-05-02T21:40:25.890Z,7.00
2019-05-02T21:42:57.217Z,5.50
2019-05-02T21:45:27.126Z,5.00
2019-05-02T21:47:57.100Z,6.00
2019-05-02T21:50:39.037Z,10.50
2019-05-02T21:53:16.469Z,9.00
2019-05-02T21:55:52.365Z,5.40
2019-05-02T21:58:22.257Z,7.00
2019-05-02T22:01:03.749Z,5.00
2019-05-02T22:03:35.261Z,7.60
2019-05-02T22:06:05.664Z,6.00
2019-05-02T22:08:35.617Z,6.00
2019-05-02T22:11:05.685Z,10.40
2019-05-02T22:13:35.777Z,9.20
2019-05-02T22:16:05.751Z,6.60
2019-05-02T22:18:35.708Z,5.40
2019-05-02T22:21:05.658Z,10.00
2019-05-02T22:23:35.608Z,7.00
2019-05-02T22:26:05.671Z,6.40
2019-05-02T22:28:35.605Z,6.50
2019-05-02T22:31:05.545Z,6.00
2019-05-02T22:33:35.535Z,3.40
2019-05-02T22:36:05.523Z,8.20
2019-05-02T22:39:02.100Z,5.20
2019-05-02T22:41:34.014Z,5.50
2019-05-02T22:44:03.940Z,7.00
2019-05-02T22:46:46.916Z,5.00
2019-05-02T22:49:16.859Z,8.50
2019-05-02T22:51:46.817Z,9.75
2019-05-02T22:54:26.623Z,10.00
2019-05-02T22:56:48.289Z,5.00
2019-05-02T22:59:18.216Z,6.00
2019-05-02T23:01:48.138Z,9.75
2019-05-02T23:04:18.089Z,6.60
2019-05-02T23:06:48.058Z,6.40
2019-05-02T23:09:18.021Z,7.40
2019-05-02T23:11:48.205Z,2.40
2019-05-02T23:14:18.116Z,6.50
2019-05-02T23:16:48.013Z,7.00
2019-05-02T23:19:17.950Z,9.00
2019-05-02T23:21:47.864Z,4.60
2019-05-02T23:24:39.972Z,7.00
2019-05-02T23:27:18.314Z,5.00
2019-05-02T23:29:48.301Z,7.60
2019-05-02T23:32:18.652Z,3.60
2019-05-02T23:34:48.605Z,7.80
2019-05-02T23:37:18.604Z,5.40
2019-05-02T23:39:48.609Z,4.00
2019-05-02T23:42:18.592Z,5.00
2019-05-02T23:44:48.580Z,6.00
2019-05-02T23:47:18.493Z,3.00
2019-05-02T23:49:48.409Z,4.00
2019-05-02T23:52:18.392Z,6.20
2019-05-02T23:54:51.780Z,1.00
2019-05-02T23:57:19.888Z,8.40
2019-05-02T23:59:51.739Z,3.00
